createdAt,value
2018-03-26T00:01:07.297Z,5.92
2018-03-26T00:03:35.947Z,5.85
2018-03-26T00:06:04.562Z,5.93
2018-03-26T00:08:33.197Z,5.89
2018-03-26T00:11:01.774Z,6.03
2018-03-26T00:13:30.752Z,5.90
2018-03-26T00:15:59.363Z,5.91
2018-03-26T00:18:27.955Z,5.91
2018-03-26T00:20:56.559Z,5.80
2018-03-26T00:23:25.127Z,5.80
2018-03-26T00:25:53.826Z,5.88
2018-03-26T00:28:23.120Z,5.78
2018-03-26T00:30:52.782Z,5.77
2018-03-26T00:33:21.394Z,5.69
2018-03-26T00:35:50.119Z,5.81
2018-03-26T00:38:18.763Z,5.75
2018-03-26T00:40:47.466Z,5.74
2018-03-26T00:43:16.047Z,5.71
2018-03-26T00:45:44.603Z,5.72
2018-03-26T00:48:13.217Z,5.85
2018-03-26T00:50:41.803Z,5.65
2018-03-26T00:53:10.427Z,5.56
2018-03-26T00:55:39.080Z,5.56
2018-03-26T00:58:07.666Z,5.62
2018-03-26T01:00:36.516Z,5.52
2018-03-26T01:03:10.012Z,5.51
2018-03-26T01:05:39.494Z,5.72
2018-03-26T01:08:08.625Z,5.58
2018-03-26T01:10:37.547Z,5.68
2018-03-26T01:13:06.130Z,5.63
2018-03-26T01:15:34.972Z,5.57
2018-03-26T01:18:03.593Z,5.65
2018-03-26T01:20:32.733Z,5.65
2018-03-26T01:23:01.307Z,5.62
2018-03-26T01:25:29.908Z,5.72
2018-03-26T01:27:59.286Z,5.69
2018-03-26T01:30:27.898Z,5.66
2018-03-26T01:32:56.525Z,5.65
2018-03-26T01:35:25.101Z,5.76
2018-03-26T01:37:53.842Z,5.82
2018-03-26T01:40:22.404Z,5.58
2018-03-26T01:42:53.145Z,5.66
2018-03-26T01:45:21.817Z,5.64
2018-03-26T01:47:50.440Z,5.51
2018-03-26T01:50:19.155Z,5.67
2018-03-26T01:52:47.787Z,5.74
2018-03-26T01:55:16.420Z,5.91
2018-03-26T01:57:45.016Z,5.92
2018-03-26T02:00:13.900Z,5.81
2018-03-26T02:02:42.600Z,5.81
2018-03-26T02:05:11.451Z,5.84
2018-03-26T02:07:40.000Z,5.85
2018-03-26T02:10:08.675Z,5.84
2018-03-26T02:12:37.298Z,6.11
2018-03-26T02:15:05.962Z,6.05
2018-03-26T02:17:34.566Z,6.08
2018-03-26T02:20:03.490Z,6.10
2018-03-26T02:22:32.584Z,6.06
2018-03-26T02:25:01.320Z,6.02
2018-03-26T02:27:29.876Z,5.79
2018-03-26T02:29:58.510Z,5.95
2018-03-26T02:32:27.095Z,5.86
2018-03-26T02:35:16.537Z,5.92
2018-03-26T02:37:45.180Z,5.83
2018-03-26T02:40:14.827Z,5.90
2018-03-26T02:42:43.559Z,5.92
2018-03-26T02:45:12.206Z,6.10
2018-03-26T02:47:40.820Z,6.03
2018-03-26T02:50:09.937Z,6.01
2018-03-26T02:52:38.556Z,6.01
2018-03-26T02:55:07.227Z,5.97
2018-03-26T02:57:36.715Z,5.98
2018-03-26T03:00:05.400Z,5.96
2018-03-26T03:02:34.134Z,6.07
2018-03-26T03:05:02.758Z,5.98
2018-03-26T03:07:31.356Z,6.07
2018-03-26T03:09:59.993Z,6.05
2018-03-26T03:12:28.702Z,6.04
2018-03-26T03:14:57.323Z,5.97
2018-03-26T03:17:26.772Z,6.05
2018-03-26T03:19:55.383Z,6.05
2018-03-26T03:22:25.863Z,6.07
2018-03-26T03:24:55.230Z,6.08
2018-03-26T03:27:23.882Z,6.02
2018-03-26T03:29:53.687Z,5.93
2018-03-26T03:32:22.403Z,5.89
2018-03-26T03:34:51.037Z,5.86
2018-03-26T03:37:19.659Z,5.93
2018-03-26T03:39:48.870Z,5.95
2018-03-26T03:42:18.378Z,6.09
2018-03-26T03:44:47.299Z,6.03
2018-03-26T03:47:16.628Z,5.93
2018-03-26T03:49:46.033Z,6.04
2018-03-26T03:52:14.680Z,5.97
2018-03-26T03:54:43.384Z,5.78
2018-03-26T03:57:12.030Z,5.67
2018-03-26T03:59:40.704Z,5.83
2018-03-26T04:02:09.575Z,5.93
2018-03-26T04:04:38.242Z,5.98
2018-03-26T04:07:07.630Z,6.02
2018-03-26T04:09:36.347Z,5.94
2018-03-26T04:12:05.032Z,5.94
2018-03-26T04:14:33.642Z,5.98
2018-03-26T04:17:02.298Z,5.99
2018-03-26T04:19:30.915Z,5.99
2018-03-26T04:22:00.585Z,5.97
2018-03-26T04:24:29.193Z,5.95
2018-03-26T04:26:58.704Z,5.96
2018-03-26T04:29:27.979Z,6.10
2018-03-26T04:31:56.594Z,6.09
2018-03-26T04:34:25.201Z,6.00
2018-03-26T04:36:54.676Z,6.15
2018-03-26T04:39:23.313Z,6.15
2018-03-26T04:41:52.147Z,6.06
2018-03-26T04:44:21.265Z,6.15
2018-03-26T04:46:51.756Z,5.88
2018-03-26T04:49:20.452Z,5.88
2018-03-26T04:51:49.091Z,5.71
2018-03-26T04:54:17.722Z,5.61
2018-03-26T04:56:46.366Z,5.85
2018-03-26T04:59:15.040Z,5.87
2018-03-26T05:01:43.723Z,5.91
2018-03-26T05:04:12.450Z,5.93
2018-03-26T05:06:41.161Z,5.98
2018-03-26T05:09:10.637Z,5.71
2018-03-26T05:11:39.295Z,5.50
2018-03-26T05:14:08.177Z,5.68
2018-03-26T05:16:36.816Z,5.67
2018-03-26T05:19:05.477Z,5.46
2018-03-26T05:21:35.215Z,5.71
2018-03-26T05:24:03.871Z,5.61
2018-03-26T05:26:32.590Z,5.70
2018-03-26T05:29:01.797Z,5.82
2018-03-26T05:31:31.749Z,6.18
2018-03-26T05:34:01.375Z,6.12
2018-03-26T05:36:30.894Z,6.30
2018-03-26T05:38:59.749Z,6.28
2018-03-26T05:41:28.527Z,6.18
2018-03-26T05:43:57.162Z,6.23
2018-03-26T05:46:25.906Z,6.30
2018-03-26T05:48:55.411Z,6.27
2018-03-26T05:51:25.136Z,6.26
2018-03-26T05:53:55.609Z,6.22
2018-03-26T05:56:24.271Z,6.31
2018-03-26T05:58:52.887Z,6.36
2018-03-26T06:01:23.266Z,6.36
2018-03-26T06:03:52.873Z,6.32
2018-03-26T06:06:21.509Z,6.36
2018-03-26T06:08:51.310Z,6.42
2018-03-26T06:11:20.001Z,6.29
2018-03-26T06:13:48.603Z,6.25
2018-03-26T06:16:17.249Z,6.33
2018-03-26T06:18:46.965Z,6.42
2018-03-26T06:21:17.117Z,6.50
2018-03-26T06:23:46.179Z,6.50
2018-03-26T06:26:14.873Z,6.47
2018-03-26T06:28:43.637Z,6.35
2018-03-26T06:31:12.658Z,6.32
2018-03-26T06:33:41.384Z,6.37
2018-03-26T06:36:10.095Z,6.39
2018-03-26T06:38:43.164Z,6.37
2018-03-26T06:41:11.865Z,6.36
2018-03-26T06:43:40.541Z,6.27
2018-03-26T06:46:09.174Z,6.31
2018-03-26T06:48:38.720Z,6.26
2018-03-26T06:51:08.355Z,6.55
2018-03-26T06:53:38.167Z,6.65
2018-03-26T06:56:06.899Z,6.70
2018-03-26T06:58:36.868Z,6.75
2018-03-26T07:01:05.498Z,6.88
2018-03-26T07:03:34.469Z,6.72
2018-03-26T07:06:03.348Z,6.84
2018-03-26T07:08:32.004Z,6.94
2018-03-26T07:11:01.045Z,6.83
2018-03-26T07:13:29.666Z,6.89
2018-03-26T07:15:59.409Z,6.80
2018-03-26T07:18:28.019Z,6.77
2018-03-26T07:20:56.663Z,6.78
2018-03-26T07:23:25.491Z,6.83
2018-03-26T07:25:54.100Z,7.03
2018-03-26T07:28:23.705Z,6.95
2018-03-26T07:30:52.978Z,6.88
2018-03-26T07:33:21.639Z,6.84
2018-03-26T07:35:50.322Z,7.09
2018-03-26T07:38:19.035Z,7.23
2018-03-26T07:40:47.653Z,7.01
2018-03-26T07:43:17.511Z,7.10
2018-03-26T07:45:46.250Z,7.07
2018-03-26T07:48:14.903Z,7.23
2018-03-26T07:50:44.702Z,7.19
2018-03-26T07:53:13.687Z,7.38
2018-03-26T07:55:42.366Z,7.26
2018-03-26T07:58:10.978Z,7.27
2018-03-26T08:00:39.704Z,7.36
2018-03-26T08:03:08.771Z,7.21
2018-03-26T08:05:39.430Z,7.38
2018-03-26T08:08:09.863Z,7.45
2018-03-26T08:10:39.177Z,7.54
2018-03-26T08:13:08.020Z,7.65
2018-03-26T08:15:36.823Z,7.64
2018-03-26T08:18:05.524Z,7.71
2018-03-26T08:20:34.783Z,7.89
2018-03-26T08:23:03.437Z,7.95
2018-03-26T08:25:33.386Z,8.02
2018-03-26T08:28:02.983Z,8.28
2018-03-26T08:30:32.653Z,8.59
2018-03-26T08:33:01.309Z,8.83
2018-03-26T08:35:29.944Z,8.79
2018-03-26T08:37:58.589Z,9.08
2018-03-26T08:40:27.286Z,9.55
2018-03-26T08:42:55.930Z,9.90
2018-03-26T08:45:25.313Z,10.32
2018-03-26T08:47:54.185Z,10.93
2018-03-26T08:50:22.815Z,11.00
2018-03-26T08:52:51.669Z,11.53
2018-03-26T08:55:21.126Z,11.29
2018-03-26T08:57:51.222Z,11.60
2018-03-26T09:00:20.056Z,11.76
2018-03-26T09:02:50.270Z,11.72
2018-03-26T09:05:18.971Z,11.50
2018-03-26T09:07:47.630Z,11.23
2018-03-26T09:10:16.481Z,11.20
2018-03-26T09:12:45.130Z,11.59
2018-03-26T09:15:13.900Z,11.63
2018-03-26T09:17:42.910Z,11.49
2018-03-26T09:20:11.625Z,11.23
2018-03-26T09:22:40.300Z,11.47
2018-03-26T09:25:08.986Z,11.57
2018-03-26T09:27:37.613Z,11.94
2018-03-26T09:30:06.322Z,12.15
2018-03-26T09:32:34.962Z,12.61
2018-03-26T09:35:03.657Z,13.15
2018-03-26T09:37:32.942Z,13.03
2018-03-26T09:40:01.567Z,13.04
2018-03-26T09:42:30.935Z,12.96
2018-03-26T09:44:59.649Z,12.77
2018-03-26T09:47:28.268Z,12.51
2018-03-26T09:49:57.191Z,12.76
2018-03-26T09:52:26.817Z,13.18
2018-03-26T09:54:56.174Z,13.90
2018-03-26T09:57:24.979Z,14.42
2018-03-26T09:59:53.664Z,14.46
2018-03-26T10:02:22.406Z,14.75
2018-03-26T10:04:51.134Z,15.16
2018-03-26T10:07:19.751Z,15.14
2018-03-26T10:09:48.574Z,14.69
2018-03-26T10:12:17.212Z,14.28
2018-03-26T10:14:46.014Z,14.70
2018-03-26T10:17:14.591Z,14.62
2018-03-26T10:19:43.328Z,13.67
2018-03-26T10:22:12.992Z,13.46
2018-03-26T10:24:41.709Z,13.07
2018-03-26T10:27:11.416Z,13.46
2018-03-26T10:29:40.152Z,14.27
2018-03-26T10:32:10.156Z,14.39
2018-03-26T10:34:39.002Z,15.04
2018-03-26T10:37:08.690Z,14.86
2018-03-26T10:39:38.554Z,15.16
2018-03-26T10:42:07.144Z,15.15
2018-03-26T10:44:35.908Z,15.09
2018-03-26T10:47:04.738Z,14.93
2018-03-26T10:49:33.435Z,15.34
2018-03-26T10:52:02.983Z,15.64
2018-03-26T10:54:31.887Z,15.78
2018-03-26T10:57:00.517Z,16.38
2018-03-26T10:59:29.230Z,16.25
2018-03-26T11:01:57.954Z,16.13
2018-03-26T11:04:26.694Z,15.69
2018-03-26T11:06:55.584Z,15.63
2018-03-26T11:09:24.443Z,15.73
2018-03-26T11:11:53.946Z,15.69
2018-03-26T11:14:23.828Z,15.54
2018-03-26T11:16:52.711Z,16.82
2018-03-26T11:19:21.414Z,16.61
2018-03-26T11:21:50.239Z,16.86
2018-03-26T11:24:19.169Z,16.79
2018-03-26T11:26:47.976Z,17.28
2018-03-26T11:29:16.593Z,16.47
2018-03-26T11:31:45.430Z,16.07
2018-03-26T11:34:14.271Z,15.84
2018-03-26T11:36:42.973Z,15.79
2018-03-26T11:39:12.093Z,15.92
2018-03-26T11:41:40.923Z,16.13
2018-03-26T11:44:09.718Z,15.72
2018-03-26T11:46:38.458Z,16.13
2018-03-26T11:49:07.196Z,16.63
2018-03-26T11:51:36.006Z,16.69
2018-03-26T11:54:04.750Z,15.75
2018-03-26T11:56:33.549Z,15.48
2018-03-26T11:59:02.270Z,15.82
2018-03-26T12:01:31.204Z,15.97
2018-03-26T12:04:00.006Z,16.18
2018-03-26T12:06:28.943Z,16.40
2018-03-26T12:08:58.460Z,16.89
2018-03-26T12:11:27.298Z,16.53
2018-03-26T12:13:56.240Z,16.41
2018-03-26T12:16:25.037Z,15.95
2018-03-26T12:18:54.052Z,15.83
2018-03-26T12:21:22.875Z,15.85
2018-03-26T12:24:03.338Z,14.81
2018-03-26T12:26:32.554Z,15.27
2018-03-26T12:29:13.024Z,15.12
2018-03-26T12:31:41.765Z,15.29
2018-03-26T12:34:22.813Z,15.24
2018-03-26T12:36:51.736Z,15.52
2018-03-26T12:39:20.757Z,15.78
2018-03-26T12:41:49.697Z,15.65
2018-03-26T12:44:30.093Z,15.66
2018-03-26T12:46:59.183Z,15.72
2018-03-26T12:49:27.989Z,16.07
2018-03-26T12:52:08.583Z,15.69
2018-03-26T12:54:37.373Z,15.69
2018-03-26T12:57:18.201Z,16.02
2018-03-26T12:59:46.963Z,15.38
2018-03-26T13:02:26.481Z,15.73
2018-03-26T13:04:55.346Z,15.48
2018-03-26T13:07:24.364Z,15.30
2018-03-26T13:09:53.188Z,15.32
2018-03-26T13:12:22.124Z,15.32
2018-03-26T13:14:51.050Z,15.23
2018-03-26T13:17:20.206Z,14.77
2018-03-26T13:19:48.871Z,14.33
2018-03-26T13:22:17.641Z,14.17
2018-03-26T13:24:46.485Z,13.95
2018-03-26T13:27:15.244Z,13.92
2018-03-26T13:29:44.188Z,13.91
2018-03-26T13:32:12.890Z,14.19
2018-03-26T13:34:42.909Z,14.15
2018-03-26T13:37:11.638Z,14.07
2018-03-26T13:39:40.461Z,14.14
2018-03-26T13:42:09.281Z,13.65
2018-03-26T13:44:38.167Z,13.72
2018-03-26T13:47:06.924Z,13.97
2018-03-26T13:49:35.657Z,14.40
2018-03-26T13:52:04.376Z,14.41
2018-03-26T13:54:33.199Z,14.67
2018-03-26T13:57:01.974Z,14.59
2018-03-26T13:59:31.660Z,14.90
2018-03-26T14:02:00.462Z,14.55
2018-03-26T14:04:29.488Z,14.35
2018-03-26T14:06:58.306Z,14.25
2018-03-26T14:09:38.838Z,14.44
2018-03-26T14:12:19.408Z,14.29
2018-03-26T14:14:59.942Z,14.26
2018-03-26T14:17:40.529Z,14.37
2018-03-26T14:20:09.394Z,14.34
2018-03-26T14:22:38.185Z,14.44
2018-03-26T14:25:08.683Z,14.34
2018-03-26T14:27:37.500Z,14.51
2018-03-26T14:30:06.243Z,14.56
2018-03-26T14:32:35.468Z,14.52
2018-03-26T14:38:13.954Z,14.84
2018-03-26T14:40:42.780Z,14.08
2018-03-26T14:43:11.515Z,14.85
2018-03-26T14:45:40.524Z,14.92
2018-03-26T14:48:09.246Z,14.80
2018-03-26T14:50:37.894Z,14.91
2018-03-26T14:53:06.698Z,14.81
2018-03-26T14:55:35.514Z,14.91
2018-03-26T14:58:04.333Z,14.75
2018-03-26T15:00:33.053Z,14.46
2018-03-26T15:03:01.775Z,14.35
2018-03-26T15:05:30.502Z,14.33
2018-03-26T15:07:59.242Z,14.18
2018-03-26T15:10:28.032Z,14.16
2018-03-26T15:12:57.489Z,13.66
2018-03-26T15:15:26.288Z,13.80
2018-03-26T15:17:55.110Z,13.62
2018-03-26T15:20:23.974Z,13.48
2018-03-26T15:22:52.691Z,13.59
2018-03-26T15:25:21.457Z,13.71
2018-03-26T15:27:50.301Z,13.60
2018-03-26T15:30:19.023Z,13.62
2018-03-26T15:32:47.844Z,13.75
2018-03-26T15:35:16.588Z,13.72
2018-03-26T15:37:45.288Z,13.72
2018-03-26T15:40:14.008Z,13.80
2018-03-26T15:42:42.645Z,13.79
2018-03-26T15:45:11.346Z,13.54
2018-03-26T15:47:40.076Z,13.44
2018-03-26T15:50:09.097Z,13.46
2018-03-26T15:52:37.825Z,13.33
2018-03-26T15:55:06.608Z,13.27
2018-03-26T15:57:35.381Z,13.25
2018-03-26T16:00:04.288Z,13.31
2018-03-26T16:02:38.728Z,13.00
2018-03-26T16:05:07.551Z,12.93
2018-03-26T16:07:36.473Z,12.87
2018-03-26T16:10:05.234Z,12.93
2018-03-26T16:12:33.936Z,12.89
2018-03-26T16:15:02.642Z,12.84
2018-03-26T16:17:31.483Z,12.45
2018-03-26T16:20:00.203Z,12.27
2018-03-26T16:22:29.005Z,12.12
2018-03-26T16:24:57.727Z,12.18
2018-03-26T16:27:26.452Z,12.27
2018-03-26T16:29:55.272Z,12.21
2018-03-26T16:32:24.093Z,12.28
2018-03-26T16:34:52.714Z,12.19
2018-03-26T16:37:21.417Z,11.99
2018-03-26T16:39:50.105Z,11.85
2018-03-26T16:45:25.137Z,11.74
2018-03-26T16:47:53.958Z,11.66
2018-03-26T16:50:22.779Z,11.56
2018-03-26T16:52:51.501Z,11.51
2018-03-26T16:55:20.323Z,11.47
2018-03-26T16:57:48.951Z,11.42
2018-03-26T17:00:18.569Z,11.62
2018-03-26T17:02:47.291Z,11.79
2018-03-26T17:05:16.825Z,11.73
2018-03-26T17:07:45.537Z,11.71
2018-03-26T17:10:14.277Z,11.67
2018-03-26T17:12:42.986Z,11.59
2018-03-26T17:15:11.805Z,11.62
2018-03-26T17:17:40.605Z,11.56
2018-03-26T17:20:09.524Z,11.61
2018-03-26T17:22:38.272Z,11.50
2018-03-26T17:25:07.005Z,11.55
2018-03-26T17:27:35.732Z,11.58
2018-03-26T17:30:04.562Z,11.54
2018-03-26T17:32:33.284Z,11.53
2018-03-26T17:35:02.003Z,11.50
2018-03-26T17:37:30.764Z,11.59
2018-03-26T17:39:59.402Z,11.50
2018-03-26T17:42:28.145Z,11.45
2018-03-26T17:44:56.921Z,11.40
2018-03-26T17:47:25.698Z,11.36
2018-03-26T17:49:54.415Z,11.33
2018-03-26T17:52:23.237Z,11.26
2018-03-26T17:54:51.890Z,11.22
2018-03-26T17:57:20.603Z,11.22
2018-03-26T17:59:49.400Z,11.09
2018-03-26T18:02:18.123Z,11.03
2018-03-26T18:04:46.945Z,10.76
2018-03-26T18:07:15.741Z,10.49
2018-03-26T18:09:44.366Z,10.44
2018-03-26T18:12:13.028Z,10.68
2018-03-26T18:14:41.821Z,10.73
2018-03-26T18:17:10.754Z,9.86
2018-03-26T18:19:39.578Z,10.65
2018-03-26T18:22:08.299Z,10.56
2018-03-26T18:24:37.120Z,10.56
2018-03-26T18:27:05.922Z,10.59
2018-03-26T18:29:34.665Z,10.58
2018-03-26T18:32:03.458Z,10.51
2018-03-26T18:34:32.312Z,10.45
2018-03-26T18:37:00.993Z,10.43
2018-03-26T18:39:29.856Z,10.52
2018-03-26T18:41:58.651Z,10.58
2018-03-26T18:44:27.485Z,10.55
2018-03-26T18:46:56.120Z,10.53
2018-03-26T18:49:25.546Z,10.41
2018-03-26T18:51:54.316Z,10.58
2018-03-26T18:54:22.990Z,10.64
2018-03-26T18:56:51.763Z,10.69
2018-03-26T18:59:20.665Z,10.65
2018-03-26T19:01:49.354Z,10.65
2018-03-26T19:04:18.107Z,10.70
2018-03-26T19:06:46.900Z,10.67
2018-03-26T19:09:15.634Z,10.56
2018-03-26T19:11:44.370Z,10.51
2018-03-26T19:14:13.166Z,10.61
2018-03-26T19:16:41.995Z,10.59
2018-03-26T19:19:10.726Z,10.61
2018-03-26T19:21:40.238Z,10.71
2018-03-26T19:24:08.956Z,10.71
2018-03-26T19:26:38.210Z,10.66
2018-03-26T19:29:06.924Z,10.66
2018-03-26T19:31:35.630Z,10.70
2018-03-26T19:34:04.347Z,10.73
2018-03-26T19:36:33.140Z,10.77
2018-03-26T19:39:01.791Z,10.81
2018-03-26T19:41:30.610Z,10.82
2018-03-26T19:43:59.339Z,10.76
2018-03-26T19:46:28.057Z,10.72
2018-03-26T19:48:56.849Z,10.88
2018-03-26T19:51:25.600Z,10.74
2018-03-26T19:53:54.408Z,10.90
2018-03-26T19:56:23.142Z,10.94
2018-03-26T19:58:52.065Z,10.50
2018-03-26T20:01:21.537Z,10.91
2018-03-26T20:03:50.364Z,10.88
2018-03-26T20:06:19.136Z,10.85
2018-03-26T20:08:48.062Z,10.79
2018-03-26T20:11:16.879Z,10.86
2018-03-26T20:13:45.602Z,10.88
2018-03-26T20:16:15.226Z,10.93
2018-03-26T20:18:43.950Z,10.90
2018-03-26T20:21:12.673Z,10.84
2018-03-26T20:23:41.492Z,10.73
2018-03-26T20:26:10.183Z,10.78
2018-03-26T20:28:38.851Z,10.81
2018-03-26T20:31:08.365Z,10.75
2018-03-26T20:33:37.926Z,10.73
2018-03-26T20:36:06.708Z,10.59
2018-03-26T20:38:35.439Z,10.60
2018-03-26T20:41:04.158Z,10.46
2018-03-26T20:43:32.980Z,10.59
2018-03-26T20:46:01.759Z,10.63
2018-03-26T20:48:32.023Z,10.59
2018-03-26T20:51:00.845Z,10.54
2018-03-26T20:53:29.632Z,10.43
2018-03-26T20:55:58.323Z,10.44
2018-03-26T20:58:28.014Z,10.50
2018-03-26T21:00:56.754Z,10.66
2018-03-26T21:03:25.424Z,10.59
2018-03-26T21:05:54.179Z,10.53
2018-03-26T21:08:23.004Z,10.47
2018-03-26T21:10:51.825Z,10.57
2018-03-26T21:13:20.570Z,10.57
2018-03-26T21:15:49.231Z,10.60
2018-03-26T21:18:18.547Z,10.07
2018-03-26T21:20:47.316Z,10.41
2018-03-26T21:23:16.055Z,10.57
2018-03-26T21:25:44.787Z,10.55
2018-03-26T21:28:13.492Z,10.46
2018-03-26T21:30:42.184Z,10.31
2018-03-26T21:33:10.894Z,10.31
2018-03-26T21:35:40.122Z,10.22
2018-03-26T21:38:08.859Z,10.26
2018-03-26T21:40:38.574Z,10.23
2018-03-26T21:43:07.319Z,10.18
2018-03-26T21:45:36.142Z,10.17
2018-03-26T21:48:04.963Z,10.35
2018-03-26T21:50:33.784Z,10.62
2018-03-26T21:53:02.607Z,10.27
2018-03-26T21:55:31.228Z,10.18
2018-03-26T21:57:59.852Z,9.80
2018-03-26T22:00:28.571Z,9.87
2018-03-26T22:02:57.201Z,9.80
2018-03-26T22:05:26.015Z,9.83
2018-03-26T22:07:55.443Z,9.81
2018-03-26T22:10:24.160Z,9.64
2018-03-26T22:12:52.882Z,9.49
2018-03-26T22:15:21.679Z,9.52
2018-03-26T22:17:50.328Z,9.48
2018-03-26T22:20:19.150Z,9.53
2018-03-26T22:22:47.872Z,9.36
2018-03-26T22:25:16.628Z,9.53
2018-03-26T22:27:45.438Z,9.44
2018-03-26T22:30:14.169Z,9.40
2018-03-26T22:32:42.960Z,9.53
2018-03-26T22:35:11.662Z,9.55
2018-03-26T22:37:40.504Z,9.27
2018-03-26T22:40:09.325Z,9.34
2018-03-26T22:42:38.147Z,9.37
2018-03-26T22:45:06.929Z,9.33
2018-03-26T22:47:35.596Z,9.38
2018-03-26T22:50:04.819Z,9.29
2018-03-26T22:52:33.638Z,9.35
2018-03-26T22:55:02.403Z,9.31
2018-03-26T22:57:31.085Z,9.43
2018-03-26T22:59:59.882Z,9.41
2018-03-26T23:02:28.514Z,9.25
2018-03-26T23:04:57.259Z,9.31
2018-03-26T23:07:25.980Z,9.32
2018-03-26T23:09:54.702Z,9.28
2018-03-26T23:12:23.412Z,9.17
2018-03-26T23:14:52.406Z,9.28
2018-03-26T23:17:21.097Z,9.31
2018-03-26T23:19:49.878Z,9.08
2018-03-26T23:22:30.645Z,9.13
2018-03-26T23:24:59.366Z,9.20
2018-03-26T23:27:28.012Z,9.08
2018-03-26T23:29:56.621Z,8.97
2018-03-26T23:32:25.431Z,8.99
2018-03-26T23:34:54.077Z,8.92
2018-03-26T23:37:23.230Z,8.95
2018-03-26T23:39:52.100Z,9.02
2018-03-26T23:42:20.821Z,9.01
2018-03-26T23:44:49.514Z,8.95
2018-03-26T23:47:18.115Z,8.78
2018-03-26T23:49:46.885Z,8.69
2018-03-26T23:52:15.727Z,8.82
2018-03-26T23:54:44.529Z,8.86
2018-03-26T23:57:13.312Z,8.84
2018-03-26T23:59:42.074Z,8.80
